| time (UTC) | temp F | wind direction | speed MPH | gust MPH | rain 1hr in | rain 24hr in | rain mn in | humidity % | barometer mb |
| 20260508033017 | 43 | 199 | 2.0 | 5.0 | 0.00 | 0.94 | 0.00 | 100 | 1001.9 |
| 20260508031512 | 44 | 182 | 3.0 | 6.0 | 0.00 | 0.94 | 0.00 | 100 | 1002.0 |
| 20260508030009 | 44 | 194 | 2.0 | 5.0 | 0.00 | 0.94 | 0.94 | 99 | 1002.0 |
| 20260508024508 | 44 | 181 | 2.0 | 5.0 | 0.00 | 0.94 | 0.94 | 99 | 1002.2 |
| 20260508023008 | 45 | 129 | 2.0 | 5.0 | 0.00 | 0.94 | 0.94 | 99 | 1001.9 |
| 20260508021505 | 45 | 185 | 1.0 | 3.0 | 0.00 | 0.94 | 0.94 | 99 | 1002.1 |
| 20260508020007 | 46 | 185 | 1.0 | 3.0 | 0.00 | 0.94 | 0.94 | 100 | 1001.8 |
| 20260508014508 | 46 | 185 | 1.0 | 5.0 | 0.00 | 0.94 | 0.94 | 99 | 1001.8 |
| 20260508013004 | 47 | 76 | 0.0 | 4.0 | 0.00 | 0.94 | 0.94 | 99 | 1001.6 |
| 20260508011504 | 47 | 182 | 1.0 | 3.0 | 0.00 | 0.94 | 0.94 | 100 | 1001.4 |
| 20260508010004 | 47 | 77 | 0.0 | 4.0 | 0.00 | 0.94 | 0.94 | 99 | 1001.5 |
| 20260508004504 | 49 | 321 | 0.0 | 3.0 | 0.00 | 0.94 | 0.94 | 99 | 1001.5 |
| 20260508003002 | 48 | 291 | 2.0 | 4.0 | 0.00 | 0.94 | 0.94 | 100 | 1001.7 |
| 20260508001502 | 48 | 69 | 0.0 | 3.0 | 0.00 | 0.94 | 0.94 | 99 | 1001.5 |
| 20260508000001 | 48 | 277 | 1.0 | 3.0 | 0.00 | 0.94 | 0.94 | 99 | 1001.6 |
| 20260507234501 | 48 | 54 | 1.0 | 3.0 | 0.00 | 0.94 | 0.94 | 99 | 1001.6 |
| 20260507233100 | 48 | 26 | 1.0 | 3.0 | 0.00 | 0.94 | 0.94 | 99 | 1001.6 |
| 20260507231601 | 48 | 27 | 0.0 | 3.0 | 0.00 | 0.94 | 0.94 | 99 | 1001.8 |
| 20260507230106 | 49 | 6 | 1.0 | 4.0 | 0.00 | 0.94 | 0.94 | 98 | 1001.7 |
| 20260507224610 | 49 | 321 | 1.0 | 3.0 | 0.00 | 0.94 | 0.94 | 99 | 1001.7 |
| 20260507223058 | 48 | 53 | 1.0 | 6.0 | 0.00 | 0.94 | 0.94 | 98 | 1001.5 |
| 20260507221557 | 49 | 33 | 1.0 | 3.0 | 0.00 | 0.94 | 0.94 | 98 | 1001.8 |
| 20260507220057 | 48 | 136 | 2.0 | 7.0 | 0.00 | 0.94 | 0.94 | 98 | 1001.9 |
| 20260507214606 | 50 | 155 | 0.0 | 5.0 | 0.02 | 0.94 | 0.94 | 98 | 1002.1 |
| 20260507213057 | 51 | 104 | 1.0 | 7.0 | 0.06 | 0.94 | 0.94 | 98 | 1001.8 |
| 20260507211601 | 51 | 217 | 6.0 | 11.0 | 0.14 | 0.94 | 0.94 | 99 | 1002.5 |
| 20260507210100 | 51 | 154 | 4.0 | 10.0 | 0.22 | 0.94 | 0.94 | 98 | 1002.0 |
| 20260507204552 | 52 | 140 | 3.0 | 8.0 | 0.28 | 0.92 | 0.92 | 98 | 1001.7 |
| 20260507203103 | 51 | 129 | 1.0 | 5.0 | 0.33 | 0.88 | 0.88 | 97 | 1002.5 |
| 20260507201557 | 52 | 146 | 1.0 | 4.0 | 0.31 | 0.79 | 0.79 | 96 | 1002.7 |
| 20260507200103 | 54 | 190 | 5.0 | 12.0 | 0.31 | 0.72 | 0.72 | 97 | 1003.0 |
| 20260507194546 | 54 | 190 | 4.0 | 11.0 | 0.31 | 0.64 | 0.64 | 97 | 1003.8 |
| 20260507193047 | 55 | 164 | 4.0 | 13.0 | 0.37 | 0.55 | 0.55 | 97 | 1003.9 |
| 20260507191542 | 55 | 189 | 4.0 | 12.0 | 0.37 | 0.48 | 0.48 | 97 | 1004.1 |
| 20260507190042 | 55 | 161 | 1.0 | 7.0 | 0.31 | 0.40 | 0.40 | 97 | 1004.1 |
| 20260507184547 | 56 | 204 | 6.0 | 16.0 | 0.24 | 0.32 | 0.32 | 96 | 1004.2 |
| 20260507183041 | 56 | 195 | 4.0 | 12.0 | 0.09 | 0.18 | 0.18 | 95 | 1004.5 |
| 20260507181538 | 56 | 187 | 6.0 | 17.0 | 0.02 | 0.10 | 0.10 | 93 | 1004.5 |
| 20260507180040 | 57 | 146 | 10.0 | 22.0 | 0.00 | 0.09 | 0.09 | 92 | 1004.3 |
| 20260507174539 | 57 | 153 | 10.0 | 28.0 | 0.00 | 0.09 | 0.09 | 91 | 1004.1 |
| 20260507173037 | 57 | 148 | 9.0 | 21.0 | 0.00 | 0.09 | 0.09 | 91 | 1004.0 |
| 20260507171535 | 57 | 187 | 13.0 | 26.0 | 0.00 | 0.09 | 0.09 | 90 | 1004.5 |
| 20260507170036 | 58 | 154 | 12.0 | 26.0 | 0.00 | 0.09 | 0.09 | 90 | 1004.5 |
| 20260507164541 | 57 | 140 | 12.0 | 20.0 | 0.00 | 0.09 | 0.09 | 89 | 1004.4 |
| 20260507163031 | 58 | 232 | 10.0 | 25.0 | 0.00 | 0.09 | 0.09 | 88 | 1005.3 |
| 20260507161528 | 59 | 172 | 10.0 | 38.0 | 0.00 | 0.09 | 0.09 | 87 | 1005.5 |
| 20260507160027 | 59 | 182 | 16.0 | 31.0 | 0.00 | 0.09 | 0.09 | 87 | 1005.6 |
| 20260507154524 | 59 | 159 | 10.0 | 29.0 | 0.00 | 0.09 | 0.09 | 88 | 1006.0 |
| 20260507153022 | 59 | 184 | 15.0 | 32.0 | 0.00 | 0.09 | 0.09 | 89 | 1006.1 |
| 20260507151522 | 58 | 188 | 14.0 | 32.0 | 0.00 | 0.09 | 0.09 | 89 | 1006.4 |
| 20260507150026 | 59 | 185 | 14.0 | 30.0 | 0.00 | 0.09 | 0.09 | 88 | 1006.5 |
| 20260507144525 | 58 | 179 | 12.0 | 34.0 | 0.00 | 0.09 | 0.09 | 90 | 1007.1 |
| 20260507143017 | 58 | 180 | 13.0 | 29.0 | 0.00 | 0.09 | 0.09 | 90 | 1007.4 |
| 20260507141517 | 58 | 211 | 13.0 | 35.0 | 0.00 | 0.09 | 0.09 | 89 | 1007.7 |
| 20260507140015 | 59 | 178 | 15.0 | 31.0 | 0.00 | 0.09 | 0.09 | 88 | 1007.9 |
| 20260507134515 | 60 | 158 | 14.0 | 32.0 | 0.00 | 0.09 | 0.09 | 86 | 1007.7 |
| 20260507133011 | 60 | 170 | 9.0 | 34.0 | 0.00 | 0.09 | 0.09 | 89 | 1007.7 |
| 20260507131507 | 59 | 218 | 9.0 | 33.0 | 0.01 | 0.09 | 0.09 | 91 | 1008.2 |
| 20260507130005 | 58 | 179 | 8.0 | 19.0 | 0.02 | 0.09 | 0.09 | 93 | 1008.2 |
| 20260507124505 | 57 | 177 | 12.0 | 29.0 | 0.05 | 0.09 | 0.09 | 95 | 1008.5 |
| 20260507123001 | 56 | 157 | 13.0 | 31.0 | 0.08 | 0.09 | 0.09 | 95 | 1008.5 |
| 20260507121621 | 56 | 208 | 16.0 | 34.0 | 0.08 | 0.08 | 0.08 | 96 | 1009.1 |
| 20260507120103 | 56 | 203 | 13.0 | 30.0 | 0.06 | 0.06 | 0.06 | 96 | 1009.5 |
| 20260507114635 | 56 | 151 | 11.0 | 22.0 | 0.05 | 0.05 | 0.05 | 95 | 1010.2 |
| 20260507113055 | 56 | 152 | 13.0 | 27.0 | 0.02 | 0.02 | 0.02 | 94 | 1010.2 |
| 20260507111559 | 57 | 191 | 14.0 | 37.0 | 0.00 | 0.00 | 0.00 | 91 | 1010.3 |
| 20260507110055 | 56 | 185 | 14.0 | 27.0 | 0.00 | 0.00 | 0.00 | 94 | 1009.9 |
| 20260507104550 | 55 | 149 | 11.0 | 25.0 | 0.00 | 0.00 | 0.00 | 95 | 1009.9 |
| 20260507103048 | 54 | 171 | 10.0 | 21.0 | 0.00 | 0.00 | 0.00 | 96 | 1010.6 |
| 20260507101546 | 53 | 169 | 8.0 | 17.0 | 0.00 | 0.00 | 0.00 | 97 | 1010.6 |
| 20260507100042 | 51 | 182 | 8.0 | 17.0 | 0.00 | 0.00 | 0.00 | 96 | 1011.1 |
| 20260507094540 | 52 | 150 | 4.0 | 10.0 | 0.00 | 0.00 | 0.00 | 97 | 1011.3 |
| 20260507093041 | 53 | 158 | 9.0 | 21.0 | 0.00 | 0.00 | 0.00 | 99 | 1011.9 |
| 20260507091543 | 46 | 146 | 0.0 | 6.0 | 0.00 | 0.00 | 0.00 | 96 | 1011.7 |
| 20260507090038 | 46 | 186 | 2.0 | 9.0 | 0.00 | 0.00 | 0.00 | 96 | 1011.8 |
| 20260507084532 | 44 | 337 | 1.0 | 4.0 | 0.00 | 0.00 | 0.00 | 93 | 1011.9 |
| 20260507083032 | 48 | 108 | 1.0 | 10.0 | 0.00 | 0.00 | 0.00 | 94 | 1011.7 |
| 20260507081524 | 51 | 177 | 3.0 | 10.0 | 0.00 | 0.00 | 0.00 | 94 | 1011.9 |
| 20260507080023 | 52 | 152 | 5.0 | 13.0 | 0.00 | 0.00 | 0.00 | 93 | 1012.1 |
| 20260507074518 | 52 | 137 | 1.0 | 8.0 | 0.00 | 0.00 | 0.00 | 93 | 1012.3 |
| 20260507073016 | 52 | 360 | 2.0 | 5.0 | 0.00 | 0.00 | 0.00 | 92 | 1012.4 |
| 20260507071515 | 52 | 114 | 1.0 | 5.0 | 0.00 | 0.00 | 0.00 | 92 | 1012.8 |
| 20260507070014 | 51 | 172 | 0.0 | 6.0 | 0.00 | 0.00 | 0.00 | 90 | 1012.7 |
| 20260507064510 | 52 | 266 | 2.0 | 4.0 | 0.00 | 0.00 | 0.00 | 89 | 1013.0 |
| 20260507063007 | 53 | 216 | 3.0 | 6.0 | 0.00 | 0.00 | 0.00 | 86 | 1013.1 |
| 20260507061605 | 54 | 106 | 1.0 | 8.0 | 0.00 | 0.00 | 0.00 | 83 | 1013.2 |
| 20260507060104 | 56 | 140 | 1.0 | 7.0 | 0.00 | 0.00 | 0.00 | 80 | 1013.4 |
| 20260507054556 | 58 | 203 | 3.0 | 11.0 | 0.00 | 0.00 | 0.00 | 81 | 1013.4 |
| 20260507053055 | 58 | 204 | 7.0 | 18.0 | 0.00 | 0.00 | 0.00 | 82 | 1013.6 |
| 20260507051551 | 59 | 235 | 5.0 | 19.0 | 0.00 | 0.00 | 0.00 | 80 | 1013.9 |
| 20260507050050 | 59 | 178 | 7.0 | 19.0 | 0.00 | 0.00 | 0.00 | 79 | 1014.1 |
| 20260507044548 | 59 | 174 | 4.0 | 10.0 | 0.00 | 0.00 | 0.00 | 77 | 1014.3 |
| 20260507043046 | 59 | 148 | 4.0 | 13.0 | 0.00 | 0.00 | 0.00 | 75 | 1014.5 |
| 20260507041543 | 59 | 170 | 6.0 | 23.0 | 0.00 | 0.00 | 0.00 | 75 | 1014.7 |
| 20260507040043 | 59 | 180 | 4.0 | 17.0 | 0.00 | 0.00 | 0.00 | 77 | 1014.8 |
| 20260507034540 | 59 | 174 | 4.0 | 19.0 | 0.00 | 0.00 | 0.00 | 78 | 1015.1 |